Main page
Satellite images 10-day forecastsClimateMarine weather Cyclones Lightning AirportsFAQ Newsletter About
Weather : Europe Africa North America South America Asia Australia-Oceania Others
Languages Contact

Frankfurt, Germany

Frankfurt Airport

latitude: 50-03N, longitude: 008-36E, elevation: 111 m


METAR: EDDF 051550Z VRB06G18KT 9999 FEW038 SCT050 BKN130 08/M01 Q1036 NOSIG
TAF: EDDF 051100Z 0512/0618 34008KT 9999 SCT030 BECMG 0519/0522 VRB03KT BECMG 0603/0606 22005KT

Time: 17:02 (16:02 UTC)

Current weather observation

The report was made 12 minutes ago, at 15:50 UTC
Wind 6 kt from variable directions with gusts up to 18 kt
Temperature 8°C
Humidity 53%
Pressure 1036 hPa
Visibility 10 km or more
Few clouds at a height of 3800 ft
Scattered clouds at a height of 5000 ft
Broken clouds at a height of 13000 ft

Change units

Forecast

The report was made 5 hours and 2 minutes ago, at 11:00 UTC
Forecast valid from 05 at 12 UTC to 06 at 18 UTC
Wind 8 kt from the North/Northwest
Visibility 10 km or more
Scattered clouds at a height of 3000 ft
Becoming
from 05 at 19 UTC to 05 at 22 UTC
Wind 3 kt from variable directions
Becoming
from 06 at 03 UTC to 06 at 06 UTC
Wind 5 kt from the Southwest
The information on this site is subject to a disclaimer
Weather : Europe Africa North America South America Asia Australia-Oceania Others
Satellite images 10-day forecastsClimateMarine weather Cyclones Lightning AirportsFAQ Languages Contact Newsletter About